Anamosa, IA

2:12 AM CST on December 09, 2016 (GMT -0600)
Castle Grove | | Change Station

Elev 961 ft 42.22 °N, 91.31 °W | Updated 38 seconds ago

Overcast
Overcast
15.8 °F
Feels Like -1 °F
N
18.6
Wind Variable Wind from West
Gusts 19.9 mph

Today
High -- | Low -- °F
--% Chance of Precip.
Yesterday
High -- | Low -- °F
Precip. -- in
Pressure 30.52 in
Visibility 10.0 miles
Clouds Scattered Clouds 2900 ft
Overcast 3700 ft
Windchill -1 °F
Dew Point 5 °F
Humidity 62%
Rainfall 0.00 in
Snow Depth Not available.
7:22 AM 4:33 PM
Waxing Gibbous, 71% visible
METAR KMXO 090755Z AUTO 31011KT 10SM SCT029 OVC037 M08/M12 A3052 RMK AO2
Pressure 30.52 in
Visibility 10.0 miles
Clouds Scattered Clouds 2900 ft
Overcast 3700 ft
Windchill -1 °F
Dew Point 5 °F
Humidity 62%
Rainfall 0.00 in
Snow Depth Not available.
7:22 AM 4:33 PM
Waxing Gibbous, 71% visible
METAR KMXO 090755Z AUTO 31011KT 10SM SCT029 OVC037 M08/M12 A3052 RMK AO2

10-Day Weather Forecast

Almanac

Astronomy

Dec. 09, 2016 Rise Set
Actual Time
Civil Twilight
Nautical Twilight
Astronomical Twilight
Moon
Length of Visible Light
Length of Day
Tomorrow will be .
, % of the Moon is Illuminated

Today's Extremes

State Highs State Lows

Community

WunderPhotos

Upload Photos

1,956,371 photos uploaded!

WunderBlog® & News

Nearby

Air Quality

  Air Quality AQ Index Pollutant
Not available.

Snow Depth

Station Depth Elevation

Earthquake Activity

City Distance Mag. Time & Date
Minimum magnitude displayed is 2.5.

Coastal Water Temperatures

Place Temperature

Stations

Nearby Weather Stations

Station Location Temp. Windchill Dew Point Humidity Wind Precip. Elev Updated Type
                   

Watches & Warnings

There are currently no watches in effect.